sensor_id;sensor_type;location;lat;lon;timestamp;temperature;humidity
52615;DHT22;38508;53.158;6.614;2023-01-15T00:01:19;7.50;99.90
52615;DHT22;38508;53.158;6.614;2023-01-15T00:03:45;7.50;99.90
52615;DHT22;38508;53.158;6.614;2023-01-15T00:06:11;7.50;99.90
52615;DHT22;38508;53.158;6.614;2023-01-15T00:08:37;7.50;99.90
52615;DHT22;38508;53.158;6.614;2023-01-15T00:11:05;7.60;99.90
52615;DHT22;38508;53.158;6.614;2023-01-15T00:13:31;7.40;99.90
52615;DHT22;38508;53.158;6.614;2023-01-15T00:16:09;7.50;99.90
52615;DHT22;38508;53.158;6.614;2023-01-15T00:18:34;7.50;99.90
52615;DHT22;38508;53.158;6.614;2023-01-15T00:21:02;7.50;99.90
52615;DHT22;38508;53.158;6.614;2023-01-15T00:23:28;7.40;99.90
52615;DHT22;38508;53.158;6.614;2023-01-15T00:26:15;7.40;99.90
52615;DHT22;38508;53.158;6.614;2023-01-15T00:28:59;7.50;99.90
52615;DHT22;38508;53.158;6.614;2023-01-15T00:31:26;7.60;99.90
52615;DHT22;38508;53.158;6.614;2023-01-15T00:33:52;7.60;99.90
52615;DHT22;38508;53.158;6.614;2023-01-15T00:36:17;7.60;99.90
52615;DHT22;38508;53.158;6.614;2023-01-15T00:38:43;7.50;99.90
52615;DHT22;38508;53.158;6.614;2023-01-15T00:41:09;7.40;99.90
52615;DHT22;38508;53.158;6.614;2023-01-15T00:43:34;7.40;99.90
52615;DHT22;38508;53.158;6.614;2023-01-15T00:46:00;7.40;99.90
52615;DHT22;38508;53.158;6.614;2023-01-15T00:48:26;7.40;99.90
52615;DHT22;38508;53.158;6.614;2023-01-15T00:50:52;7.40;99.90
52615;DHT22;38508;53.158;6.614;2023-01-15T00:53:18;7.40;99.90
52615;DHT22;38508;53.158;6.614;2023-01-15T00:55:43;7.40;99.90
52615;DHT22;38508;53.158;6.614;2023-01-15T00:58:09;7.40;99.90
52615;DHT22;38508;53.158;6.614;2023-01-15T01:00:34;7.50;99.90
52615;DHT22;38508;53.158;6.614;2023-01-15T01:03:00;7.50;99.90
52615;DHT22;38508;53.158;6.614;2023-01-15T01:05:26;7.50;99.90
52615;DHT22;38508;53.158;6.614;2023-01-15T01:07:51;7.60;99.90
52615;DHT22;38508;53.158;6.614;2023-01-15T01:10:17;7.50;99.90
52615;DHT22;38508;53.158;6.614;2023-01-15T01:12:43;7.50;99.90
52615;DHT22;38508;53.158;6.614;2023-01-15T01:15:09;7.40;99.90
52615;DHT22;38508;53.158;6.614;2023-01-15T01:17:38;7.40;99.90
52615;DHT22;38508;53.158;6.614;2023-01-15T01:20:04;7.30;99.90
52615;DHT22;38508;53.158;6.614;2023-01-15T01:22:30;7.40;99.90
52615;DHT22;38508;53.158;6.614;2023-01-15T01:24:58;7.40;99.90
52615;DHT22;38508;53.158;6.614;2023-01-15T01:27:23;7.30;99.90
52615;DHT22;38508;53.158;6.614;2023-01-15T01:29:49;7.40;99.90
52615;DHT22;38508;53.158;6.614;2023-01-15T01:32:15;7.40;99.90
52615;DHT22;38508;53.158;6.614;2023-01-15T01:34:41;7.40;99.90
52615;DHT22;38508;53.158;6.614;2023-01-15T01:37:06;7.50;99.90
52615;DHT22;38508;53.158;6.614;2023-01-15T01:39:32;7.50;99.90
52615;DHT22;38508;53.158;6.614;2023-01-15T01:41:58;7.40;99.90
52615;DHT22;38508;53.158;6.614;2023-01-15T01:47:06;7.40;99.90
52615;DHT22;38508;53.158;6.614;2023-01-15T01:49:33;7.50;99.90
52615;DHT22;38508;53.158;6.614;2023-01-15T01:52:07;7.40;99.90
52615;DHT22;38508;53.158;6.614;2023-01-15T01:54:34;7.40;99.90
52615;DHT22;38508;53.158;6.614;2023-01-15T01:57:02;7.40;99.90
52615;DHT22;38508;53.158;6.614;2023-01-15T01:59:28;7.50;99.90
52615;DHT22;38508;53.158;6.614;2023-01-15T02:01:54;7.40;99.90
52615;DHT22;38508;53.158;6.614;2023-01-15T02:04:21;7.40;99.90
52615;DHT22;38508;53.158;6.614;2023-01-15T02:06:50;7.30;99.90
52615;DHT22;38508;53.158;6.614;2023-01-15T02:09:16;7.30;99.90
52615;DHT22;38508;53.158;6.614;2023-01-15T02:11:41;7.30;99.90
52615;DHT22;38508;53.158;6.614;2023-01-15T02:14:14;7.40;99.90
52615;DHT22;38508;53.158;6.614;2023-01-15T02:17:11;7.40;99.90
52615;DHT22;38508;53.158;6.614;2023-01-15T02:28:29;7.30;99.90
52615;DHT22;38508;53.158;6.614;2023-01-15T02:31:09;7.30;99.90
52615;DHT22;38508;53.158;6.614;2023-01-15T02:33:50;7.30;99.90
52615;DHT22;38508;53.158;6.614;2023-01-15T02:36:22;7.30;99.90
52615;DHT22;38508;53.158;6.614;2023-01-15T02:38:50;7.30;99.90
52615;DHT22;38508;53.158;6.614;2023-01-15T02:41:27;7.30;99.90
52615;DHT22;38508;53.158;6.614;2023-01-15T02:43:54;7.30;99.90
52615;DHT22;38508;53.158;6.614;2023-01-15T02:46:23;7.30;99.90
52615;DHT22;38508;53.158;6.614;2023-01-15T02:48:53;7.40;99.90
52615;DHT22;38508;53.158;6.614;2023-01-15T02:51:24;7.40;99.90
52615;DHT22;38508;53.158;6.614;2023-01-15T02:53:54;7.30;99.90
52615;DHT22;38508;53.158;6.614;2023-01-15T02:56:24;7.40;99.90
52615;DHT22;38508;53.158;6.614;2023-01-15T02:58:56;7.40;99.90
52615;DHT22;38508;53.158;6.614;2023-01-15T03:01:52;7.30;99.90
52615;DHT22;38508;53.158;6.614;2023-01-15T03:07:18;7.40;99.90
52615;DHT22;38508;53.158;6.614;2023-01-15T03:09:46;7.30;99.90
52615;DHT22;38508;53.158;6.614;2023-01-15T03:12:21;7.30;99.90
52615;DHT22;38508;53.158;6.614;2023-01-15T03:14:59;7.30;99.90
52615;DHT22;38508;53.158;6.614;2023-01-15T03:17:36;7.30;99.90
52615;DHT22;38508;53.158;6.614;2023-01-15T03:20:18;7.30;99.90
52615;DHT22;38508;53.158;6.614;2023-01-15T03:22:49;7.30;99.90
52615;DHT22;38508;53.158;6.614;2023-01-15T03:25:21;7.30;99.90
52615;DHT22;38508;53.158;6.614;2023-01-15T03:27:49;7.30;99.90
52615;DHT22;38508;53.158;6.614;2023-01-15T03:30:19;7.20;99.90
52615;DHT22;38508;53.158;6.614;2023-01-15T03:32:46;7.30;99.90
52615;DHT22;38508;53.158;6.614;2023-01-15T03:38:10;7.40;99.90
52615;DHT22;38508;53.158;6.614;2023-01-15T03:40:42;7.40;99.90
52615;DHT22;38508;53.158;6.614;2023-01-15T03:43:14;7.40;99.90
52615;DHT22;38508;53.158;6.614;2023-01-15T03:46:04;7.50;99.90
52615;DHT22;38508;53.158;6.614;2023-01-15T03:51:50;7.40;99.90
52615;DHT22;38508;53.158;6.614;2023-01-15T03:54:38;7.30;99.90
52615;DHT22;38508;53.158;6.614;2023-01-15T03:59:53;7.30;99.90
52615;DHT22;38508;53.158;6.614;2023-01-15T04:02:19;7.40;99.90
52615;DHT22;38508;53.158;6.614;2023-01-15T04:04:47;7.30;99.90
52615;DHT22;38508;53.158;6.614;2023-01-15T04:07:13;7.30;99.90
52615;DHT22;38508;53.158;6.614;2023-01-15T04:09:40;7.30;99.90
52615;DHT22;38508;53.158;6.614;2023-01-15T04:12:06;7.20;99.90
52615;DHT22;38508;53.158;6.614;2023-01-15T04:14:32;7.30;99.90
52615;DHT22;38508;53.158;6.614;2023-01-15T04:16:58;7.30;99.90
52615;DHT22;38508;53.158;6.614;2023-01-15T04:19:24;7.30;99.90
52615;DHT22;38508;53.158;6.614;2023-01-15T04:21:49;7.20;99.90
52615;DHT22;38508;53.158;6.614;2023-01-15T04:24:15;7.20;99.90
52615;DHT22;38508;53.158;6.614;2023-01-15T04:26:40;7.20;99.90
52615;DHT22;38508;53.158;6.614;2023-01-15T04:29:06;7.10;99.90
52615;DHT22;38508;53.158;6.614;2023-01-15T04:31:32;7.10;99.90
52615;DHT22;38508;53.158;6.614;2023-01-15T04:33:59;7.10;99.90
52615;DHT22;38508;53.158;6.614;2023-01-15T04:36:25;7.10;99.90
52615;DHT22;38508;53.158;6.614;2023-01-15T04:38:50;7.10;99.90
52615;DHT22;38508;53.158;6.614;2023-01-15T04:41:16;7.10;99.90
52615;DHT22;38508;53.158;6.614;2023-01-15T04:44:02;7.00;99.90
52615;DHT22;38508;53.158;6.614;2023-01-15T04:46:32;7.00;99.90
52615;DHT22;38508;53.158;6.614;2023-01-15T04:48:57;7.00;99.90
52615;DHT22;38508;53.158;6.614;2023-01-15T04:51:23;7.00;99.90
52615;DHT22;38508;53.158;6.614;2023-01-15T04:53:49;7.00;99.90
52615;DHT22;38508;53.158;6.614;2023-01-15T04:56:15;7.00;99.90
52615;DHT22;38508;53.158;6.614;2023-01-15T04:58:40;7.00;99.90
52615;DHT22;38508;53.158;6.614;2023-01-15T05:01:14;7.00;99.90
52615;DHT22;38508;53.158;6.614;2023-01-15T05:03:41;7.00;99.90
52615;DHT22;38508;53.158;6.614;2023-01-15T05:06:08;7.10;99.90
52615;DHT22;38508;53.158;6.614;2023-01-15T05:08:34;7.00;99.90
52615;DHT22;38508;53.158;6.614;2023-01-15T05:11:01;7.00;99.90
52615;DHT22;38508;53.158;6.614;2023-01-15T05:13:28;6.90;99.90
52615;DHT22;38508;53.158;6.614;2023-01-15T05:15:54;7.00;99.90
52615;DHT22;38508;53.158;6.614;2023-01-15T05:18:20;6.90;99.90
52615;DHT22;38508;53.158;6.614;2023-01-15T05:20:46;6.90;99.90
52615;DHT22;38508;53.158;6.614;2023-01-15T05:23:11;6.90;99.90
52615;DHT22;38508;53.158;6.614;2023-01-15T05:25:37;6.80;99.90
52615;DHT22;38508;53.158;6.614;2023-01-15T05:28:03;6.90;99.90
52615;DHT22;38508;53.158;6.614;2023-01-15T05:30:29;6.90;99.90
52615;DHT22;38508;53.158;6.614;2023-01-15T05:32:54;6.80;99.90
52615;DHT22;38508;53.158;6.614;2023-01-15T05:35:20;6.80;99.90
52615;DHT22;38508;53.158;6.614;2023-01-15T05:37:46;6.90;99.90
52615;DHT22;38508;53.158;6.614;2023-01-15T05:40:12;6.90;99.90
52615;DHT22;38508;53.158;6.614;2023-01-15T05:42:37;6.80;99.90
52615;DHT22;38508;53.158;6.614;2023-01-15T05:45:03;6.80;99.90
52615;DHT22;38508;53.158;6.614;2023-01-15T05:47:29;6.70;99.90
52615;DHT22;38508;53.158;6.614;2023-01-15T05:49:54;6.70;99.90
52615;DHT22;38508;53.158;6.614;2023-01-15T05:52:20;6.70;99.90
52615;DHT22;38508;53.158;6.614;2023-01-15T05:54:48;6.70;99.90
52615;DHT22;38508;53.158;6.614;2023-01-15T05:57:14;6.70;99.90
52615;DHT22;38508;53.158;6.614;2023-01-15T05:59:39;6.70;99.90
52615;DHT22;38508;53.158;6.614;2023-01-15T06:02:05;6.60;99.90
52615;DHT22;38508;53.158;6.614;2023-01-15T06:04:31;6.70;99.90
52615;DHT22;38508;53.158;6.614;2023-01-15T06:06:57;6.60;99.90
52615;DHT22;38508;53.158;6.614;2023-01-15T06:09:23;6.70;99.90
52615;DHT22;38508;53.158;6.614;2023-01-15T06:11:50;6.60;99.90
52615;DHT22;38508;53.158;6.614;2023-01-15T06:14:16;6.60;99.90
52615;DHT22;38508;53.158;6.614;2023-01-15T06:16:41;6.60;99.90
52615;DHT22;38508;53.158;6.614;2023-01-15T06:19:08;6.50;99.90
52615;DHT22;38508;53.158;6.614;2023-01-15T06:21:35;6.50;99.90
52615;DHT22;38508;53.158;6.614;2023-01-15T06:24:01;6.40;99.90
52615;DHT22;38508;53.158;6.614;2023-01-15T06:26:27;6.50;99.90
52615;DHT22;38508;53.158;6.614;2023-01-15T06:28:53;6.50;99.90
52615;DHT22;38508;53.158;6.614;2023-01-15T06:31:21;6.50;99.90
52615;DHT22;38508;53.158;6.614;2023-01-15T06:33:47;6.50;99.90
52615;DHT22;38508;53.158;6.614;2023-01-15T06:36:15;6.50;99.90
52615;DHT22;38508;53.158;6.614;2023-01-15T06:38:42;6.40;99.90
52615;DHT22;38508;53.158;6.614;2023-01-15T06:41:12;6.40;99.90
52615;DHT22;38508;53.158;6.614;2023-01-15T06:44:05;6.50;99.90
52615;DHT22;38508;53.158;6.614;2023-01-15T06:46:50;6.40;99.90
52615;DHT22;38508;53.158;6.614;2023-01-15T06:49:36;6.40;99.90
52615;DHT22;38508;53.158;6.614;2023-01-15T06:52:02;6.40;99.90
52615;DHT22;38508;53.158;6.614;2023-01-15T06:54:29;6.40;99.90
52615;DHT22;38508;53.158;6.614;2023-01-15T06:56:54;6.40;99.90
52615;DHT22;38508;53.158;6.614;2023-01-15T06:59:20;6.30;99.90
52615;DHT22;38508;53.158;6.614;2023-01-15T07:01:46;6.40;99.90
52615;DHT22;38508;53.158;6.614;2023-01-15T07:04:12;6.40;99.90
52615;DHT22;38508;53.158;6.614;2023-01-15T07:06:37;6.30;99.90
52615;DHT22;38508;53.158;6.614;2023-01-15T07:09:03;6.30;99.90
52615;DHT22;38508;53.158;6.614;2023-01-15T07:11:29;6.40;99.90
52615;DHT22;38508;53.158;6.614;2023-01-15T07:13:55;6.40;99.90
52615;DHT22;38508;53.158;6.614;2023-01-15T07:16:36;6.30;99.90
52615;DHT22;38508;53.158;6.614;2023-01-15T07:19:03;6.30;99.90
52615;DHT22;38508;53.158;6.614;2023-01-15T07:21:29;6.30;99.90
52615;DHT22;38508;53.158;6.614;2023-01-15T07:23:57;6.30;99.90
52615;DHT22;38508;53.158;6.614;2023-01-15T07:26:23;6.30;99.90
52615;DHT22;38508;53.158;6.614;2023-01-15T07:28:49;6.30;99.90
52615;DHT22;38508;53.158;6.614;2023-01-15T07:31:14;6.30;99.90
52615;DHT22;38508;53.158;6.614;2023-01-15T07:33:40;6.40;99.90
52615;DHT22;38508;53.158;6.614;2023-01-15T07:36:06;6.20;99.90
52615;DHT22;38508;53.158;6.614;2023-01-15T07:38:32;6.20;99.90
52615;DHT22;38508;53.158;6.614;2023-01-15T07:40:58;6.20;99.90
52615;DHT22;38508;53.158;6.614;2023-01-15T07:43:42;6.20;99.90
52615;DHT22;38508;53.158;6.614;2023-01-15T07:46:27;6.20;99.90
52615;DHT22;38508;53.158;6.614;2023-01-15T07:49:11;6.20;99.90
52615;DHT22;38508;53.158;6.614;2023-01-15T07:51:55;6.20;99.90
52615;DHT22;38508;53.158;6.614;2023-01-15T07:54:21;6.20;99.90
52615;DHT22;38508;53.158;6.614;2023-01-15T07:56:47;6.20;99.90
52615;DHT22;38508;53.158;6.614;2023-01-15T07:59:13;6.20;99.90
52615;DHT22;38508;53.158;6.614;2023-01-15T08:01:39;6.20;99.90
52615;DHT22;38508;53.158;6.614;2023-01-15T08:04:05;6.20;99.90
52615;DHT22;38508;53.158;6.614;2023-01-15T08:06:30;6.30;99.90
52615;DHT22;38508;53.158;6.614;2023-01-15T08:08:56;6.20;99.90
52615;DHT22;38508;53.158;6.614;2023-01-15T08:11:22;6.20;99.90
52615;DHT22;38508;53.158;6.614;2023-01-15T08:14:08;6.20;99.90
52615;DHT22;38508;53.158;6.614;2023-01-15T08:16:52;6.20;99.90
52615;DHT22;38508;53.158;6.614;2023-01-15T08:19:18;6.20;99.90
52615;DHT22;38508;53.158;6.614;2023-01-15T08:21:44;6.10;99.90
52615;DHT22;38508;53.158;6.614;2023-01-15T08:24:10;6.20;99.90
52615;DHT22;38508;53.158;6.614;2023-01-15T08:26:35;6.30;99.90
52615;DHT22;38508;53.158;6.614;2023-01-15T08:29:01;6.40;99.90
52615;DHT22;38508;53.158;6.614;2023-01-15T08:31:27;6.40;99.90
52615;DHT22;38508;53.158;6.614;2023-01-15T08:33:52;6.40;99.90
52615;DHT22;38508;53.158;6.614;2023-01-15T08:36:18;6.50;99.90
52615;DHT22;38508;53.158;6.614;2023-01-15T08:38:44;6.50;99.90
52615;DHT22;38508;53.158;6.614;2023-01-15T08:41:09;6.40;99.90
52615;DHT22;38508;53.158;6.614;2023-01-15T08:43:35;6.30;99.90
52615;DHT22;38508;53.158;6.614;2023-01-15T08:46:03;6.20;99.90
52615;DHT22;38508;53.158;6.614;2023-01-15T08:48:30;6.20;99.90
52615;DHT22;38508;53.158;6.614;2023-01-15T08:50:56;6.20;99.90
52615;DHT22;38508;53.158;6.614;2023-01-15T08:53:22;6.20;99.90
52615;DHT22;38508;53.158;6.614;2023-01-15T08:55:49;6.20;99.90
52615;DHT22;38508;53.158;6.614;2023-01-15T08:58:16;6.20;99.90
52615;DHT22;38508;53.158;6.614;2023-01-15T09:00:42;6.20;99.90
52615;DHT22;38508;53.158;6.614;2023-01-15T09:03:08;6.30;99.90
52615;DHT22;38508;53.158;6.614;2023-01-15T09:05:36;6.40;99.90
52615;DHT22;38508;53.158;6.614;2023-01-15T09:08:03;6.40;99.90
52615;DHT22;38508;53.158;6.614;2023-01-15T09:10:29;6.40;99.90
52615;DHT22;38508;53.158;6.614;2023-01-15T09:12:58;6.30;99.90
52615;DHT22;38508;53.158;6.614;2023-01-15T09:15:23;6.30;99.90
52615;DHT22;38508;53.158;6.614;2023-01-15T09:17:49;6.20;99.90
52615;DHT22;38508;53.158;6.614;2023-01-15T09:20:15;6.20;99.90
52615;DHT22;38508;53.158;6.614;2023-01-15T09:22:40;6.30;99.90
52615;DHT22;38508;53.158;6.614;2023-01-15T09:25:06;6.50;99.90
52615;DHT22;38508;53.158;6.614;2023-01-15T09:27:32;6.50;99.90
52615;DHT22;38508;53.158;6.614;2023-01-15T09:29:59;6.60;99.90
52615;DHT22;38508;53.158;6.614;2023-01-15T09:32:24;6.60;99.90
52615;DHT22;38508;53.158;6.614;2023-01-15T09:34:50;6.60;99.90
52615;DHT22;38508;53.158;6.614;2023-01-15T09:37:16;6.60;99.90
52615;DHT22;38508;53.158;6.614;2023-01-15T09:39:42;6.60;99.90
52615;DHT22;38508;53.158;6.614;2023-01-15T09:45:17;6.70;99.90
52615;DHT22;38508;53.158;6.614;2023-01-15T09:48:06;6.80;99.90
52615;DHT22;38508;53.158;6.614;2023-01-15T09:56:05;7.20;99.90
52615;DHT22;38508;53.158;6.614;2023-01-15T09:58:38;7.10;99.90
52615;DHT22;38508;53.158;6.614;2023-01-15T10:01:05;7.00;99.90
52615;DHT22;38508;53.158;6.614;2023-01-15T10:03:44;6.90;99.90
52615;DHT22;38508;53.158;6.614;2023-01-15T10:06:26;6.90;99.90
52615;DHT22;38508;53.158;6.614;2023-01-15T10:09:01;7.00;99.90
52615;DHT22;38508;53.158;6.614;2023-01-15T10:12:02;7.20;99.90
52615;DHT22;38508;53.158;6.614;2023-01-15T10:14:57;7.40;99.90
52615;DHT22;38508;53.158;6.614;2023-01-15T10:17:45;7.40;99.90
52615;DHT22;38508;53.158;6.614;2023-01-15T10:23:20;7.50;99.90
52615;DHT22;38508;53.158;6.614;2023-01-15T10:26:02;7.40;99.90
52615;DHT22;38508;53.158;6.614;2023-01-15T10:31:19;7.50;99.90
52615;DHT22;38508;53.158;6.614;2023-01-15T10:36:57;7.50;99.90
52615;DHT22;38508;53.158;6.614;2023-01-15T10:47:41;7.70;99.90
52615;DHT22;38508;53.158;6.614;2023-01-15T10:50:20;7.70;99.90
52615;DHT22;38508;53.158;6.614;2023-01-15T10:52:49;7.70;99.90
52615;DHT22;38508;53.158;6.614;2023-01-15T10:55:23;7.70;99.90
52615;DHT22;38508;53.158;6.614;2023-01-15T10:58:03;7.60;99.90
52615;DHT22;38508;53.158;6.614;2023-01-15T11:00:31;7.60;99.90
52615;DHT22;38508;53.158;6.614;2023-01-15T11:03:07;7.70;99.90
52615;DHT22;38508;53.158;6.614;2023-01-15T11:05:39;7.80;99.90
52615;DHT22;38508;53.158;6.614;2023-01-15T11:08:18;7.80;99.90
52615;DHT22;38508;53.158;6.614;2023-01-15T11:10:47;7.80;99.90
52615;DHT22;38508;53.158;6.614;2023-01-15T11:13:21;7.80;99.90
52615;DHT22;38508;53.158;6.614;2023-01-15T11:16:20;7.80;99.90
52615;DHT22;38508;53.158;6.614;2023-01-15T11:19:03;8.00;99.90
52615;DHT22;38508;53.158;6.614;2023-01-15T11:21:55;8.10;99.90
52615;DHT22;38508;53.158;6.614;2023-01-15T11:24:21;8.20;99.90
52615;DHT22;38508;53.158;6.614;2023-01-15T11:26:49;8.10;99.90
52615;DHT22;38508;53.158;6.614;2023-01-15T11:31:55;8.10;99.90
52615;DHT22;38508;53.158;6.614;2023-01-15T11:34:21;8.10;99.90
52615;DHT22;38508;53.158;6.614;2023-01-15T11:36:48;8.30;99.90
52615;DHT22;38508;53.158;6.614;2023-01-15T11:39:26;8.30;99.90
52615;DHT22;38508;53.158;6.614;2023-01-15T11:42:03;8.20;99.90
52615;DHT22;38508;53.158;6.614;2023-01-15T11:44:56;8.00;99.90
52615;DHT22;38508;53.158;6.614;2023-01-15T11:47:51;8.00;99.90
52615;DHT22;38508;53.158;6.614;2023-01-15T11:50:47;7.90;99.90
52615;DHT22;38508;53.158;6.614;2023-01-15T11:53:23;7.90;99.90
52615;DHT22;38508;53.158;6.614;2023-01-15T11:56:01;7.90;99.90
52615;DHT22;38508;53.158;6.614;2023-01-15T11:58:45;7.80;99.90
52615;DHT22;38508;53.158;6.614;2023-01-15T12:01:16;7.80;99.90
52615;DHT22;38508;53.158;6.614;2023-01-15T12:03:45;7.80;99.90
52615;DHT22;38508;53.158;6.614;2023-01-15T12:06:12;8.00;99.90
52615;DHT22;38508;53.158;6.614;2023-01-15T12:28:24;7.50;99.90
52615;DHT22;38508;53.158;6.614;2023-01-15T12:33:52;7.30;99.90
52615;DHT22;38508;53.158;6.614;2023-01-15T12:36:27;7.20;99.90
52615;DHT22;38508;53.158;6.614;2023-01-15T12:41:53;7.30;99.90
52615;DHT22;38508;53.158;6.614;2023-01-15T12:44:59;7.20;99.90
52615;DHT22;38508;53.158;6.614;2023-01-15T12:50:41;6.80;99.90
52615;DHT22;38508;53.158;6.614;2023-01-15T12:55:39;6.30;99.90
52615;DHT22;38508;53.158;6.614;2023-01-15T12:58:18;6.00;99.90
52615;DHT22;38508;53.158;6.614;2023-01-15T13:00:46;5.80;99.90
52615;DHT22;38508;53.158;6.614;2023-01-15T13:05:57;5.70;99.90
52615;DHT22;38508;53.158;6.614;2023-01-15T13:11:11;5.70;99.90
52615;DHT22;38508;53.158;6.614;2023-01-15T13:13:39;5.60;99.90
52615;DHT22;38508;53.158;6.614;2023-01-15T13:16:47;5.60;99.90
52615;DHT22;38508;53.158;6.614;2023-01-15T13:19:44;5.50;99.90
52615;DHT22;38508;53.158;6.614;2023-01-15T13:22:17;5.50;99.90
52615;DHT22;38508;53.158;6.614;2023-01-15T13:35:56;5.60;99.90
52615;DHT22;38508;53.158;6.614;2023-01-15T13:38:27;5.60;99.90
52615;DHT22;38508;53.158;6.614;2023-01-15T13:40:56;5.60;99.90
52615;DHT22;38508;53.158;6.614;2023-01-15T13:43:37;5.70;99.90
52615;DHT22;38508;53.158;6.614;2023-01-15T13:46:07;5.70;99.90
52615;DHT22;38508;53.158;6.614;2023-01-15T13:48:40;5.70;99.90
52615;DHT22;38508;53.158;6.614;2023-01-15T13:51:16;5.80;99.90
52615;DHT22;38508;53.158;6.614;2023-01-15T13:53:47;5.80;99.90
52615;DHT22;38508;53.158;6.614;2023-01-15T13:56:28;5.90;99.90
52615;DHT22;38508;53.158;6.614;2023-01-15T13:59:00;5.90;99.90
52615;DHT22;38508;53.158;6.614;2023-01-15T14:06:55;6.00;99.90
52615;DHT22;38508;53.158;6.614;2023-01-15T14:19:32;6.10;99.90
52615;DHT22;38508;53.158;6.614;2023-01-15T14:30:12;6.10;99.90
52615;DHT22;38508;53.158;6.614;2023-01-15T14:35:21;6.20;99.90
52615;DHT22;38508;53.158;6.614;2023-01-15T14:37:56;6.20;99.90
52615;DHT22;38508;53.158;6.614;2023-01-15T14:40:32;6.20;99.90
52615;DHT22;38508;53.158;6.614;2023-01-15T14:43:08;6.20;99.90
52615;DHT22;38508;53.158;6.614;2023-01-15T14:45:40;6.30;99.90
52615;DHT22;38508;53.158;6.614;2023-01-15T14:51:11;6.30;99.90
52615;DHT22;38508;53.158;6.614;2023-01-15T14:53:40;6.30;99.90
52615;DHT22;38508;53.158;6.614;2023-01-15T14:56:43;6.40;99.90
52615;DHT22;38508;53.158;6.614;2023-01-15T14:59:41;6.40;99.90
52615;DHT22;38508;53.158;6.614;2023-01-15T15:02:22;6.40;99.90
52615;DHT22;38508;53.158;6.614;2023-01-15T15:04:54;6.40;99.90
52615;DHT22;38508;53.158;6.614;2023-01-15T15:07:25;6.40;99.90
52615;DHT22;38508;53.158;6.614;2023-01-15T15:12:51;6.50;99.90
52615;DHT22;38508;53.158;6.614;2023-01-15T15:15:32;6.60;99.90
52615;DHT22;38508;53.158;6.614;2023-01-15T15:21:00;6.50;99.90
52615;DHT22;38508;53.158;6.614;2023-01-15T15:28:58;6.60;99.90
52615;DHT22;38508;53.158;6.614;2023-01-15T15:31:24;6.60;99.90
52615;DHT22;38508;53.158;6.614;2023-01-15T15:33:53;6.60;99.90
52615;DHT22;38508;53.158;6.614;2023-01-15T15:36:20;6.50;99.90
52615;DHT22;38508;53.158;6.614;2023-01-15T15:39:02;6.50;99.90
52615;DHT22;38508;53.158;6.614;2023-01-15T15:41:34;6.60;99.90
52615;DHT22;38508;53.158;6.614;2023-01-15T15:44:31;6.50;99.90
52615;DHT22;38508;53.158;6.614;2023-01-15T15:47:23;6.60;99.90
52615;DHT22;38508;53.158;6.614;2023-01-15T15:50:19;6.50;99.90
52615;DHT22;38508;53.158;6.614;2023-01-15T15:52:47;6.50;99.90
52615;DHT22;38508;53.158;6.614;2023-01-15T15:55:14;6.50;99.90
52615;DHT22;38508;53.158;6.614;2023-01-15T15:57:40;6.60;99.90
52615;DHT22;38508;53.158;6.614;2023-01-15T16:00:19;6.60;99.90
52615;DHT22;38508;53.158;6.614;2023-01-15T16:02:47;6.60;99.90
52615;DHT22;38508;53.158;6.614;2023-01-15T16:05:24;6.50;99.90
52615;DHT22;38508;53.158;6.614;2023-01-15T16:07:51;6.60;99.90
52615;DHT22;38508;53.158;6.614;2023-01-15T16:10:31;6.50;99.90
52615;DHT22;38508;53.158;6.614;2023-01-15T16:12:59;6.60;99.90
52615;DHT22;38508;53.158;6.614;2023-01-15T16:15:28;6.60;99.90
52615;DHT22;38508;53.158;6.614;2023-01-15T16:17:59;6.60;99.90
52615;DHT22;38508;53.158;6.614;2023-01-15T16:20:26;6.60;99.90
52615;DHT22;38508;53.158;6.614;2023-01-15T16:22:57;6.60;99.90
52615;DHT22;38508;53.158;6.614;2023-01-15T16:25:31;6.60;99.90
52615;DHT22;38508;53.158;6.614;2023-01-15T16:27:58;6.50;99.90
52615;DHT22;38508;53.158;6.614;2023-01-15T16:30:25;6.50;99.90
52615;DHT22;38508;53.158;6.614;2023-01-15T16:32:51;6.50;99.90
52615;DHT22;38508;53.158;6.614;2023-01-15T16:35:18;6.50;99.90
52615;DHT22;38508;53.158;6.614;2023-01-15T16:37:47;6.50;99.90
52615;DHT22;38508;53.158;6.614;2023-01-15T16:40:37;6.50;99.90
52615;DHT22;38508;53.158;6.614;2023-01-15T16:45:55;6.50;99.90
52615;DHT22;38508;53.158;6.614;2023-01-15T16:48:32;6.60;99.90
52615;DHT22;38508;53.158;6.614;2023-01-15T16:53:46;6.50;99.90
52615;DHT22;38508;53.158;6.614;2023-01-15T16:56:26;6.50;99.90
52615;DHT22;38508;53.158;6.614;2023-01-15T16:58:52;6.50;99.90
52615;DHT22;38508;53.158;6.614;2023-01-15T17:01:39;6.50;99.90
52615;DHT22;38508;53.158;6.614;2023-01-15T17:04:29;6.50;99.90
52615;DHT22;38508;53.158;6.614;2023-01-15T17:07:03;6.50;99.90
52615;DHT22;38508;53.158;6.614;2023-01-15T17:09:32;6.50;99.90
52615;DHT22;38508;53.158;6.614;2023-01-15T17:12:03;6.50;99.90
52615;DHT22;38508;53.158;6.614;2023-01-15T17:14:30;6.50;99.90
52615;DHT22;38508;53.158;6.614;2023-01-15T17:17:28;6.40;99.90
52615;DHT22;38508;53.158;6.614;2023-01-15T17:19:55;6.40;99.90
52615;DHT22;38508;53.158;6.614;2023-01-15T17:22:29;6.50;99.90
52615;DHT22;38508;53.158;6.614;2023-01-15T17:24:58;6.50;99.90
52615;DHT22;38508;53.158;6.614;2023-01-15T17:27:25;6.60;99.90
52615;DHT22;38508;53.158;6.614;2023-01-15T17:29:52;6.50;99.90
52615;DHT22;38508;53.158;6.614;2023-01-15T17:32:32;6.50;99.90
52615;DHT22;38508;53.158;6.614;2023-01-15T17:35:00;6.50;99.90
52615;DHT22;38508;53.158;6.614;2023-01-15T17:37:26;6.60;99.90
52615;DHT22;38508;53.158;6.614;2023-01-15T17:39:52;6.50;99.90
52615;DHT22;38508;53.158;6.614;2023-01-15T17:42:19;6.50;99.90
52615;DHT22;38508;53.158;6.614;2023-01-15T17:44:45;6.50;99.90
52615;DHT22;38508;53.158;6.614;2023-01-15T17:47:11;6.60;99.90
52615;DHT22;38508;53.158;6.614;2023-01-15T17:49:37;6.50;99.90
52615;DHT22;38508;53.158;6.614;2023-01-15T17:52:06;6.60;99.90
52615;DHT22;38508;53.158;6.614;2023-01-15T17:54:32;6.60;99.90
52615;DHT22;38508;53.158;6.614;2023-01-15T17:57:17;6.60;99.90
52615;DHT22;38508;53.158;6.614;2023-01-15T18:00:02;6.60;99.90
52615;DHT22;38508;53.158;6.614;2023-01-15T18:02:46;6.60;99.90
52615;DHT22;38508;53.158;6.614;2023-01-15T18:05:30;6.60;99.90
52615;DHT22;38508;53.158;6.614;2023-01-15T18:08:04;6.60;99.90
52615;DHT22;38508;53.158;6.614;2023-01-15T18:10:32;6.50;99.90
52615;DHT22;38508;53.158;6.614;2023-01-15T18:12:59;6.40;99.90
52615;DHT22;38508;53.158;6.614;2023-01-15T18:15:27;6.50;99.90
52615;DHT22;38508;53.158;6.614;2023-01-15T18:17:52;6.50;99.90
52615;DHT22;38508;53.158;6.614;2023-01-15T18:20:18;6.50;99.90
52615;DHT22;38508;53.158;6.614;2023-01-15T18:22:44;6.60;99.90
52615;DHT22;38508;53.158;6.614;2023-01-15T18:25:10;6.70;99.90
52615;DHT22;38508;53.158;6.614;2023-01-15T18:27:36;6.60;99.90
52615;DHT22;38508;53.158;6.614;2023-01-15T18:30:12;6.60;99.90
52615;DHT22;38508;53.158;6.614;2023-01-15T18:32:38;6.50;99.90
52615;DHT22;38508;53.158;6.614;2023-01-15T18:35:05;6.60;99.90